sensor_id;sensor_type;location;lat;lon;timestamp;temperature;humidity
12481;DHT22;6305;48.398;11.762;2023-07-28T00:01:31;15.50;99.90
12481;DHT22;6305;48.398;11.762;2023-07-28T00:03:58;15.60;99.90
12481;DHT22;6305;48.398;11.762;2023-07-28T00:06:25;15.60;99.90
12481;DHT22;6305;48.398;11.762;2023-07-28T00:08:52;15.60;99.90
12481;DHT22;6305;48.398;11.762;2023-07-28T00:11:19;15.50;99.90
12481;DHT22;6305;48.398;11.762;2023-07-28T00:13:48;15.50;99.90
12481;DHT22;6305;48.398;11.762;2023-07-28T00:16:15;15.40;99.90
12481;DHT22;6305;48.398;11.762;2023-07-28T00:18:42;15.40;99.90
12481;DHT22;6305;48.398;11.762;2023-07-28T00:21:09;15.40;99.90
12481;DHT22;6305;48.398;11.762;2023-07-28T00:23:36;15.40;99.90
12481;DHT22;6305;48.398;11.762;2023-07-28T00:26:03;15.40;99.90
12481;DHT22;6305;48.398;11.762;2023-07-28T00:28:30;15.40;99.90
12481;DHT22;6305;48.398;11.762;2023-07-28T00:30:59;15.40;99.90
12481;DHT22;6305;48.398;11.762;2023-07-28T00:33:26;15.40;99.90
12481;DHT22;6305;48.398;11.762;2023-07-28T00:35:53;15.30;99.90
12481;DHT22;6305;48.398;11.762;2023-07-28T00:38:20;15.20;99.90
12481;DHT22;6305;48.398;11.762;2023-07-28T00:40:47;15.10;99.90
12481;DHT22;6305;48.398;11.762;2023-07-28T00:43:14;15.10;99.90
12481;DHT22;6305;48.398;11.762;2023-07-28T00:45:41;15.10;99.90
12481;DHT22;6305;48.398;11.762;2023-07-28T00:48:12;15.10;99.90
12481;DHT22;6305;48.398;11.762;2023-07-28T00:50:41;15.10;99.90
12481;DHT22;6305;48.398;11.762;2023-07-28T00:53:09;15.10;99.90
12481;DHT22;6305;48.398;11.762;2023-07-28T00:55:38;15.10;99.90
12481;DHT22;6305;48.398;11.762;2023-07-28T00:58:05;15.10;99.90
12481;DHT22;6305;48.398;11.762;2023-07-28T01:00:32;15.10;99.90
12481;DHT22;6305;48.398;11.762;2023-07-28T01:02:59;15.10;99.90
12481;DHT22;6305;48.398;11.762;2023-07-28T01:05:32;15.10;99.90
12481;DHT22;6305;48.398;11.762;2023-07-28T01:08:05;15.00;99.90
12481;DHT22;6305;48.398;11.762;2023-07-28T01:10:34;15.00;99.90
12481;DHT22;6305;48.398;11.762;2023-07-28T01:13:01;14.90;99.90
12481;DHT22;6305;48.398;11.762;2023-07-28T01:15:28;14.80;99.90
12481;DHT22;6305;48.398;11.762;2023-07-28T01:17:55;14.60;99.90
12481;DHT22;6305;48.398;11.762;2023-07-28T01:20:24;14.40;99.90
12481;DHT22;6305;48.398;11.762;2023-07-28T01:23:06;14.30;99.90
12481;DHT22;6305;48.398;11.762;2023-07-28T01:25:43;14.20;99.90
12481;DHT22;6305;48.398;11.762;2023-07-28T01:28:15;14.10;99.90
12481;DHT22;6305;48.398;11.762;2023-07-28T01:30:43;14.00;99.90
12481;DHT22;6305;48.398;11.762;2023-07-28T01:33:10;14.00;99.90
12481;DHT22;6305;48.398;11.762;2023-07-28T01:35:37;13.90;99.90
12481;DHT22;6305;48.398;11.762;2023-07-28T01:38:04;13.90;99.90
12481;DHT22;6305;48.398;11.762;2023-07-28T01:40:31;14.00;99.90
12481;DHT22;6305;48.398;11.762;2023-07-28T01:42:58;14.00;99.90
12481;DHT22;6305;48.398;11.762;2023-07-28T01:45:27;14.00;99.90
12481;DHT22;6305;48.398;11.762;2023-07-28T01:47:54;14.00;99.90
12481;DHT22;6305;48.398;11.762;2023-07-28T01:50:21;13.90;99.90
12481;DHT22;6305;48.398;11.762;2023-07-28T01:52:48;13.90;99.90
12481;DHT22;6305;48.398;11.762;2023-07-28T01:55:15;13.80;99.90
12481;DHT22;6305;48.398;11.762;2023-07-28T01:57:50;13.80;99.90
12481;DHT22;6305;48.398;11.762;2023-07-28T02:00:18;13.70;99.90
12481;DHT22;6305;48.398;11.762;2023-07-28T02:02:48;13.70;99.90
12481;DHT22;6305;48.398;11.762;2023-07-28T02:05:16;13.60;99.90
12481;DHT22;6305;48.398;11.762;2023-07-28T02:07:43;13.60;99.90
12481;DHT22;6305;48.398;11.762;2023-07-28T02:10:10;13.50;99.90
12481;DHT22;6305;48.398;11.762;2023-07-28T02:12:38;13.50;99.90
12481;DHT22;6305;48.398;11.762;2023-07-28T02:15:06;13.40;99.90
12481;DHT22;6305;48.398;11.762;2023-07-28T02:17:33;13.40;99.90
12481;DHT22;6305;48.398;11.762;2023-07-28T02:20:02;13.40;99.90
12481;DHT22;6305;48.398;11.762;2023-07-28T02:22:30;13.50;99.90
12481;DHT22;6305;48.398;11.762;2023-07-28T02:24:56;13.50;99.90
12481;DHT22;6305;48.398;11.762;2023-07-28T02:27:27;13.50;99.90
12481;DHT22;6305;48.398;11.762;2023-07-28T02:29:55;13.60;99.90
12481;DHT22;6305;48.398;11.762;2023-07-28T02:32:22;13.70;99.90
12481;DHT22;6305;48.398;11.762;2023-07-28T02:34:49;13.70;99.90
12481;DHT22;6305;48.398;11.762;2023-07-28T02:37:18;13.80;99.90
12481;DHT22;6305;48.398;11.762;2023-07-28T02:39:44;13.70;99.90
12481;DHT22;6305;48.398;11.762;2023-07-28T02:42:12;13.70;99.90
12481;DHT22;6305;48.398;11.762;2023-07-28T02:44:39;13.70;99.90
12481;DHT22;6305;48.398;11.762;2023-07-28T02:47:06;13.60;99.90
12481;DHT22;6305;48.398;11.762;2023-07-28T02:49:34;13.50;99.90
12481;DHT22;6305;48.398;11.762;2023-07-28T02:52:01;13.40;99.90
12481;DHT22;6305;48.398;11.762;2023-07-28T02:54:30;13.30;99.90
12481;DHT22;6305;48.398;11.762;2023-07-28T02:56:57;13.20;99.90
12481;DHT22;6305;48.398;11.762;2023-07-28T02:59:24;13.10;99.90
12481;DHT22;6305;48.398;11.762;2023-07-28T03:01:52;13.00;99.90
12481;DHT22;6305;48.398;11.762;2023-07-28T03:04:20;13.00;99.90
12481;DHT22;6305;48.398;11.762;2023-07-28T03:07:06;12.90;99.90
12481;DHT22;6305;48.398;11.762;2023-07-28T03:09:37;12.80;99.90
12481;DHT22;6305;48.398;11.762;2023-07-28T03:12:04;12.70;99.90
12481;DHT22;6305;48.398;11.762;2023-07-28T03:14:32;12.70;99.90
12481;DHT22;6305;48.398;11.762;2023-07-28T03:16:59;12.70;99.90
12481;DHT22;6305;48.398;11.762;2023-07-28T03:19:26;12.60;99.90
12481;DHT22;6305;48.398;11.762;2023-07-28T03:21:54;12.60;99.90
12481;DHT22;6305;48.398;11.762;2023-07-28T03:24:20;12.60;99.90
12481;DHT22;6305;48.398;11.762;2023-07-28T03:26:49;12.50;99.90
12481;DHT22;6305;48.398;11.762;2023-07-28T03:29:16;12.50;99.90
12481;DHT22;6305;48.398;11.762;2023-07-28T03:31:44;12.60;99.90
12481;DHT22;6305;48.398;11.762;2023-07-28T03:34:11;12.60;99.90
12481;DHT22;6305;48.398;11.762;2023-07-28T03:36:39;12.60;99.90
12481;DHT22;6305;48.398;11.762;2023-07-28T03:39:06;12.50;99.90
12481;DHT22;6305;48.398;11.762;2023-07-28T03:41:32;12.60;99.90
12481;DHT22;6305;48.398;11.762;2023-07-28T03:44:01;12.60;99.90
12481;DHT22;6305;48.398;11.762;2023-07-28T03:46:28;12.60;99.90
12481;DHT22;6305;48.398;11.762;2023-07-28T03:48:55;12.60;99.90
12481;DHT22;6305;48.398;11.762;2023-07-28T03:51:23;12.60;99.90
12481;DHT22;6305;48.398;11.762;2023-07-28T03:53:50;12.50;99.90
12481;DHT22;6305;48.398;11.762;2023-07-28T03:56:17;12.50;99.90
12481;DHT22;6305;48.398;11.762;2023-07-28T03:58:45;12.50;99.90
12481;DHT22;6305;48.398;11.762;2023-07-28T04:01:14;12.50;99.90
12481;DHT22;6305;48.398;11.762;2023-07-28T04:03:41;12.50;99.90
12481;DHT22;6305;48.398;11.762;2023-07-28T04:06:10;12.60;99.90
12481;DHT22;6305;48.398;11.762;2023-07-28T04:08:37;12.80;99.90
12481;DHT22;6305;48.398;11.762;2023-07-28T04:11:04;12.90;99.90
12481;DHT22;6305;48.398;11.762;2023-07-28T04:13:31;12.90;99.90
12481;DHT22;6305;48.398;11.762;2023-07-28T04:15:58;12.90;99.90
12481;DHT22;6305;48.398;11.762;2023-07-28T04:18:27;12.90;99.90
12481;DHT22;6305;48.398;11.762;2023-07-28T04:20:54;13.10;99.90
12481;DHT22;6305;48.398;11.762;2023-07-28T04:23:21;13.20;99.90
12481;DHT22;6305;48.398;11.762;2023-07-28T04:25:49;13.30;99.90
12481;DHT22;6305;48.398;11.762;2023-07-28T04:28:16;13.30;99.90
12481;DHT22;6305;48.398;11.762;2023-07-28T04:30:43;13.30;99.90
12481;DHT22;6305;48.398;11.762;2023-07-28T04:33:20;13.40;99.90
12481;DHT22;6305;48.398;11.762;2023-07-28T04:35:49;13.50;99.90
12481;DHT22;6305;48.398;11.762;2023-07-28T04:38:20;13.60;99.90
12481;DHT22;6305;48.398;11.762;2023-07-28T04:40:51;13.70;99.90
12481;DHT22;6305;48.398;11.762;2023-07-28T04:43:23;14.00;99.90
12481;DHT22;6305;48.398;11.762;2023-07-28T04:45:54;14.20;99.90
12481;DHT22;6305;48.398;11.762;2023-07-28T04:48:23;14.40;99.90
12481;DHT22;6305;48.398;11.762;2023-07-28T04:50:51;14.70;99.90
12481;DHT22;6305;48.398;11.762;2023-07-28T04:53:21;14.90;99.90
12481;DHT22;6305;48.398;11.762;2023-07-28T04:56:11;15.10;99.90
12481;DHT22;6305;48.398;11.762;2023-07-28T04:58:38;15.30;99.90
12481;DHT22;6305;48.398;11.762;2023-07-28T05:01:05;15.40;99.90
12481;DHT22;6305;48.398;11.762;2023-07-28T05:03:34;15.50;99.90
12481;DHT22;6305;48.398;11.762;2023-07-28T05:06:26;15.80;99.90
12481;DHT22;6305;48.398;11.762;2023-07-28T05:08:52;16.30;99.90
12481;DHT22;6305;48.398;11.762;2023-07-28T05:11:26;16.60;99.90
12481;DHT22;6305;48.398;11.762;2023-07-28T05:13:54;16.80;99.90
12481;DHT22;6305;48.398;11.762;2023-07-28T05:16:21;16.80;99.90
12481;DHT22;6305;48.398;11.762;2023-07-28T05:19:17;16.80;99.90
12481;DHT22;6305;48.398;11.762;2023-07-28T05:22:04;16.70;99.90
12481;DHT22;6305;48.398;11.762;2023-07-28T05:24:44;16.70;99.90
12481;DHT22;6305;48.398;11.762;2023-07-28T05:27:12;16.90;99.90
12481;DHT22;6305;48.398;11.762;2023-07-28T05:29:42;17.20;99.90
12481;DHT22;6305;48.398;11.762;2023-07-28T05:32:09;17.50;99.90
12481;DHT22;6305;48.398;11.762;2023-07-28T05:34:54;17.80;99.90
12481;DHT22;6305;48.398;11.762;2023-07-28T05:37:22;18.20;99.90
12481;DHT22;6305;48.398;11.762;2023-07-28T05:39:50;18.20;99.90
12481;DHT22;6305;48.398;11.762;2023-07-28T05:42:18;18.10;99.90
12481;DHT22;6305;48.398;11.762;2023-07-28T05:44:47;18.00;99.90
12481;DHT22;6305;48.398;11.762;2023-07-28T05:47:14;18.10;99.90
12481;DHT22;6305;48.398;11.762;2023-07-28T05:49:41;18.60;99.90
12481;DHT22;6305;48.398;11.762;2023-07-28T05:52:08;19.00;99.90
12481;DHT22;6305;48.398;11.762;2023-07-28T05:54:36;19.50;99.90
12481;DHT22;6305;48.398;11.762;2023-07-28T05:57:04;19.60;99.90
12481;DHT22;6305;48.398;11.762;2023-07-28T05:59:31;19.80;99.90
12481;DHT22;6305;48.398;11.762;2023-07-28T06:01:58;20.10;99.90
12481;DHT22;6305;48.398;11.762;2023-07-28T06:04:48;20.40;99.90
12481;DHT22;6305;48.398;11.762;2023-07-28T06:07:15;20.60;99.90
12481;DHT22;6305;48.398;11.762;2023-07-28T06:09:44;20.80;99.90
12481;DHT22;6305;48.398;11.762;2023-07-28T06:12:12;21.10;99.90
12481;DHT22;6305;48.398;11.762;2023-07-28T06:14:42;21.50;99.90
12481;DHT22;6305;48.398;11.762;2023-07-28T06:17:10;21.90;99.90
12481;DHT22;6305;48.398;11.762;2023-07-28T06:19:37;22.20;99.90
12481;DHT22;6305;48.398;11.762;2023-07-28T06:22:05;22.40;99.90
12481;DHT22;6305;48.398;11.762;2023-07-28T06:24:37;22.80;99.90
12481;DHT22;6305;48.398;11.762;2023-07-28T06:27:05;23.20;99.90
12481;DHT22;6305;48.398;11.762;2023-07-28T06:29:37;23.60;99.90
12481;DHT22;6305;48.398;11.762;2023-07-28T06:32:05;24.30;99.90
12481;DHT22;6305;48.398;11.762;2023-07-28T06:34:32;25.10;99.20
12481;DHT22;6305;48.398;11.762;2023-07-28T06:36:59;25.80;93.50
12481;DHT22;6305;48.398;11.762;2023-07-28T06:39:26;26.10;91.70
12481;DHT22;6305;48.398;11.762;2023-07-28T06:41:55;26.90;90.10
12481;DHT22;6305;48.398;11.762;2023-07-28T06:44:25;27.20;86.10
12481;DHT22;6305;48.398;11.762;2023-07-28T06:46:52;26.80;82.20
12481;DHT22;6305;48.398;11.762;2023-07-28T06:49:20;25.70;88.90
12481;DHT22;6305;48.398;11.762;2023-07-28T06:51:47;24.70;93.70
12481;DHT22;6305;48.398;11.762;2023-07-28T06:54:14;25.00;97.30
12481;DHT22;6305;48.398;11.762;2023-07-28T06:56:40;26.30;95.00
12481;DHT22;6305;48.398;11.762;2023-07-28T06:59:08;27.50;86.70
12481;DHT22;6305;48.398;11.762;2023-07-28T07:01:36;26.70;82.10
12481;DHT22;6305;48.398;11.762;2023-07-28T07:04:03;25.40;90.30
12481;DHT22;6305;48.398;11.762;2023-07-28T07:06:32;24.50;95.10
12481;DHT22;6305;48.398;11.762;2023-07-28T07:08:59;24.50;99.30
12481;DHT22;6305;48.398;11.762;2023-07-28T07:11:26;25.50;97.80
12481;DHT22;6305;48.398;11.762;2023-07-28T07:13:53;27.10;94.00
12481;DHT22;6305;48.398;11.762;2023-07-28T07:16:20;27.50;84.80
12481;DHT22;6305;48.398;11.762;2023-07-28T07:18:48;27.00;84.80
12481;DHT22;6305;48.398;11.762;2023-07-28T07:21:17;26.30;89.30
12481;DHT22;6305;48.398;11.762;2023-07-28T07:23:44;25.80;91.50
12481;DHT22;6305;48.398;11.762;2023-07-28T07:26:24;25.40;94.00
12481;DHT22;6305;48.398;11.762;2023-07-28T07:28:52;25.00;96.30
12481;DHT22;6305;48.398;11.762;2023-07-28T07:31:19;24.70;98.40
12481;DHT22;6305;48.398;11.762;2023-07-28T07:33:47;25.50;99.90
12481;DHT22;6305;48.398;11.762;2023-07-28T07:36:14;27.50;93.40
12481;DHT22;6305;48.398;11.762;2023-07-28T07:38:42;29.00;83.30
12481;DHT22;6305;48.398;11.762;2023-07-28T07:41:11;30.10;71.50
12481;DHT22;6305;48.398;11.762;2023-07-28T07:43:41;29.90;68.10
12481;DHT22;6305;48.398;11.762;2023-07-28T07:46:08;29.40;65.90
12481;DHT22;6305;48.398;11.762;2023-07-28T07:48:35;28.20;71.20
12481;DHT22;6305;48.398;11.762;2023-07-28T07:51:04;28.20;74.10
12481;DHT22;6305;48.398;11.762;2023-07-28T07:53:31;28.50;73.80
12481;DHT22;6305;48.398;11.762;2023-07-28T07:55:58;29.10;74.00
12481;DHT22;6305;48.398;11.762;2023-07-28T07:58:25;30.00;68.20
12481;DHT22;6305;48.398;11.762;2023-07-28T08:00:52;29.70;64.60
12481;DHT22;6305;48.398;11.762;2023-07-28T08:03:19;28.30;67.50
12481;DHT22;6305;48.398;11.762;2023-07-28T08:05:46;27.20;72.20
12481;DHT22;6305;48.398;11.762;2023-07-28T08:08:14;26.40;79.20
12481;DHT22;6305;48.398;11.762;2023-07-28T08:10:42;25.80;87.40
12481;DHT22;6305;48.398;11.762;2023-07-28T08:13:09;25.40;91.40
12481;DHT22;6305;48.398;11.762;2023-07-28T08:15:36;25.40;94.50
12481;DHT22;6305;48.398;11.762;2023-07-28T08:18:04;25.80;92.50
12481;DHT22;6305;48.398;11.762;2023-07-28T08:20:31;26.20;92.00
12481;DHT22;6305;48.398;11.762;2023-07-28T08:22:58;27.30;89.90
12481;DHT22;6305;48.398;11.762;2023-07-28T08:25:26;28.90;75.60
12481;DHT22;6305;48.398;11.762;2023-07-28T08:27:53;29.40;71.50
12481;DHT22;6305;48.398;11.762;2023-07-28T08:30:20;29.10;68.40
12481;DHT22;6305;48.398;11.762;2023-07-28T08:32:48;28.80;68.80
12481;DHT22;6305;48.398;11.762;2023-07-28T08:35:16;28.60;71.00
12481;DHT22;6305;48.398;11.762;2023-07-28T08:37:43;28.40;69.70
12481;DHT22;6305;48.398;11.762;2023-07-28T08:40:12;28.10;70.70
12481;DHT22;6305;48.398;11.762;2023-07-28T08:42:40;28.00;73.20
12481;DHT22;6305;48.398;11.762;2023-07-28T08:45:08;28.10;74.50
12481;DHT22;6305;48.398;11.762;2023-07-28T08:47:36;28.20;72.10
12481;DHT22;6305;48.398;11.762;2023-07-28T08:50:04;28.10;72.30
12481;DHT22;6305;48.398;11.762;2023-07-28T08:52:31;28.10;71.60
12481;DHT22;6305;48.398;11.762;2023-07-28T08:54:59;28.30;69.90
12481;DHT22;6305;48.398;11.762;2023-07-28T08:57:27;28.40;69.70
12481;DHT22;6305;48.398;11.762;2023-07-28T08:59:55;28.30;69.10
12481;DHT22;6305;48.398;11.762;2023-07-28T09:02:22;28.20;68.80
12481;DHT22;6305;48.398;11.762;2023-07-28T09:04:49;28.50;68.60
12481;DHT22;6305;48.398;11.762;2023-07-28T09:07:16;28.80;68.70
12481;DHT22;6305;48.398;11.762;2023-07-28T09:09:44;28.90;66.10
12481;DHT22;6305;48.398;11.762;2023-07-28T09:12:12;28.60;67.50
12481;DHT22;6305;48.398;11.762;2023-07-28T09:14:39;28.60;67.10
12481;DHT22;6305;48.398;11.762;2023-07-28T09:17:08;28.30;67.80
12481;DHT22;6305;48.398;11.762;2023-07-28T09:19:49;28.10;68.20
12481;DHT22;6305;48.398;11.762;2023-07-28T09:22:17;28.10;69.20
12481;DHT22;6305;48.398;11.762;2023-07-28T09:24:44;27.90;69.70
12481;DHT22;6305;48.398;11.762;2023-07-28T09:27:19;27.80;70.90
12481;DHT22;6305;48.398;11.762;2023-07-28T09:29:48;27.70;72.20
12481;DHT22;6305;48.398;11.762;2023-07-28T09:32:26;28.30;71.40
12481;DHT22;6305;48.398;11.762;2023-07-28T09:35:06;29.80;65.40
12481;DHT22;6305;48.398;11.762;2023-07-28T09:37:38;30.80;59.50
12481;DHT22;6305;48.398;11.762;2023-07-28T09:40:08;32.00;58.00
12481;DHT22;6305;48.398;11.762;2023-07-28T09:42:37;32.00;54.80
12481;DHT22;6305;48.398;11.762;2023-07-28T09:45:06;31.50;54.90
12481;DHT22;6305;48.398;11.762;2023-07-28T09:47:36;30.90;55.10
12481;DHT22;6305;48.398;11.762;2023-07-28T09:50:04;30.50;57.10
12481;DHT22;6305;48.398;11.762;2023-07-28T09:52:34;30.50;56.60
12481;DHT22;6305;48.398;11.762;2023-07-28T09:55:06;30.70;57.40
12481;DHT22;6305;48.398;11.762;2023-07-28T09:57:37;30.90;56.30
12481;DHT22;6305;48.398;11.762;2023-07-28T10:00:07;30.50;56.10
12481;DHT22;6305;48.398;11.762;2023-07-28T10:02:39;29.90;55.80
12481;DHT22;6305;48.398;11.762;2023-07-28T10:05:07;29.30;58.50
12481;DHT22;6305;48.398;11.762;2023-07-28T10:07:38;29.20;59.20
12481;DHT22;6305;48.398;11.762;2023-07-28T10:10:07;29.40;59.60
12481;DHT22;6305;48.398;11.762;2023-07-28T10:12:40;29.60;57.60
12481;DHT22;6305;48.398;11.762;2023-07-28T10:15:12;29.20;56.10
12481;DHT22;6305;48.398;11.762;2023-07-28T10:17:45;28.50;57.60
12481;DHT22;6305;48.398;11.762;2023-07-28T10:20:34;28.10;59.50
12481;DHT22;6305;48.398;11.762;2023-07-28T10:23:06;28.20;60.70
12481;DHT22;6305;48.398;11.762;2023-07-28T10:25:35;27.90;59.60
12481;DHT22;6305;48.398;11.762;2023-07-28T10:28:04;27.50;60.50
12481;DHT22;6305;48.398;11.762;2023-07-28T10:30:50;27.20;62.10
12481;DHT22;6305;48.398;11.762;2023-07-28T10:33:30;26.90;62.50
12481;DHT22;6305;48.398;11.762;2023-07-28T10:35:58;26.50;65.00
12481;DHT22;6305;48.398;11.762;2023-07-28T10:38:30;26.30;65.50
12481;DHT22;6305;48.398;11.762;2023-07-28T10:41:06;26.30;66.20
12481;DHT22;6305;48.398;11.762;2023-07-28T10:43:34;26.20;67.40
12481;DHT22;6305;48.398;11.762;2023-07-28T10:46:01;26.10;66.80
12481;DHT22;6305;48.398;11.762;2023-07-28T10:48:29;26.10;68.20
12481;DHT22;6305;48.398;11.762;2023-07-28T10:50:56;25.90;69.10
12481;DHT22;6305;48.398;11.762;2023-07-28T10:53:23;26.00;70.20
12481;DHT22;6305;48.398;11.762;2023-07-28T10:55:50;26.10;70.10
12481;DHT22;6305;48.398;11.762;2023-07-28T10:58:19;26.10;71.00
12481;DHT22;6305;48.398;11.762;2023-07-28T11:00:50;25.90;73.30
12481;DHT22;6305;48.398;11.762;2023-07-28T11:03:18;25.80;72.60
12481;DHT22;6305;48.398;11.762;2023-07-28T11:05:48;25.60;74.40
12481;DHT22;6305;48.398;11.762;2023-07-28T11:08:16;25.30;76.90
12481;DHT22;6305;48.398;11.762;2023-07-28T11:10:43;25.10;79.00
12481;DHT22;6305;48.398;11.762;2023-07-28T11:13:11;25.00;81.50
12481;DHT22;6305;48.398;11.762;2023-07-28T11:15:38;24.90;83.40
12481;DHT22;6305;48.398;11.762;2023-07-28T11:18:05;24.90;84.10
12481;DHT22;6305;48.398;11.762;2023-07-28T11:20:33;24.70;85.30
12481;DHT22;6305;48.398;11.762;2023-07-28T11:23:02;24.70;86.30
12481;DHT22;6305;48.398;11.762;2023-07-28T11:25:31;24.50;88.70
12481;DHT22;6305;48.398;11.762;2023-07-28T11:28:01;24.40;90.00
12481;DHT22;6305;48.398;11.762;2023-07-28T11:30:28;24.30;91.10
12481;DHT22;6305;48.398;11.762;2023-07-28T11:32:56;24.20;92.50
12481;DHT22;6305;48.398;11.762;2023-07-28T11:35:23;24.00;94.90
12481;DHT22;6305;48.398;11.762;2023-07-28T11:37:52;23.80;98.20
12481;DHT22;6305;48.398;11.762;2023-07-28T11:40:23;23.50;99.90
12481;DHT22;6305;48.398;11.762;2023-07-28T11:43:01;23.30;99.90
12481;DHT22;6305;48.398;11.762;2023-07-28T11:45:29;22.80;99.90
12481;DHT22;6305;48.398;11.762;2023-07-28T11:47:57;22.40;99.90
12481;DHT22;6305;48.398;11.762;2023-07-28T11:50:26;22.00;99.90
12481;DHT22;6305;48.398;11.762;2023-07-28T11:52:54;21.80;99.90
12481;DHT22;6305;48.398;11.762;2023-07-28T11:55:23;21.70;99.90
12481;DHT22;6305;48.398;11.762;2023-07-28T11:57:51;21.30;99.90
12481;DHT22;6305;48.398;11.762;2023-07-28T12:00:19;20.90;99.90
12481;DHT22;6305;48.398;11.762;2023-07-28T12:03:01;21.00;99.90
12481;DHT22;6305;48.398;11.762;2023-07-28T12:05:30;21.40;99.90
12481;DHT22;6305;48.398;11.762;2023-07-28T12:07:57;21.80;99.90
12481;DHT22;6305;48.398;11.762;2023-07-28T12:10:26;22.00;99.90
12481;DHT22;6305;48.398;11.762;2023-07-28T12:12:53;22.30;99.90
12481;DHT22;6305;48.398;11.762;2023-07-28T12:15:22;22.60;99.90
12481;DHT22;6305;48.398;11.762;2023-07-28T12:18:10;23.00;99.90
12481;DHT22;6305;48.398;11.762;2023-07-28T12:20:40;24.10;99.90
12481;DHT22;6305;48.398;11.762;2023-07-28T12:23:08;25.40;99.90
12481;DHT22;6305;48.398;11.762;2023-07-28T12:25:37;27.50;99.90
12481;DHT22;6305;48.398;11.762;2023-07-28T12:28:04;29.50;99.90
12481;DHT22;6305;48.398;11.762;2023-07-28T12:30:32;30.60;89.50
12481;DHT22;6305;48.398;11.762;2023-07-28T12:33:00;30.60;81.20
12481;DHT22;6305;48.398;11.762;2023-07-28T12:35:27;29.90;74.70
12481;DHT22;6305;48.398;11.762;2023-07-28T12:37:57;29.70;78.80
12481;DHT22;6305;48.398;11.762;2023-07-28T12:40:26;30.30;84.30
12481;DHT22;6305;48.398;11.762;2023-07-28T12:42:55;31.60;69.80
12481;DHT22;6305;48.398;11.762;2023-07-28T12:45:23;32.80;63.00
12481;DHT22;6305;48.398;11.762;2023-07-28T12:47:51;33.90;57.20
12481;DHT22;6305;48.398;11.762;2023-07-28T12:50:20;34.50;52.20
12481;DHT22;6305;48.398;11.762;2023-07-28T12:52:47;33.50;51.60
12481;DHT22;6305;48.398;11.762;2023-07-28T12:55:15;33.40;52.20
12481;DHT22;6305;48.398;11.762;2023-07-28T12:58:01;33.70;51.10
12481;DHT22;6305;48.398;11.762;2023-07-28T13:00:28;34.50;49.90
12481;DHT22;6305;48.398;11.762;2023-07-28T13:02:55;35.00;48.30
12481;DHT22;6305;48.398;11.762;2023-07-28T13:05:22;35.30;47.20
12481;DHT22;6305;48.398;11.762;2023-07-28T13:07:49;35.20;46.80
12481;DHT22;6305;48.398;11.762;2023-07-28T13:10:16;34.20;47.80
12481;DHT22;6305;48.398;11.762;2023-07-28T13:12:43;33.40;50.10
12481;DHT22;6305;48.398;11.762;2023-07-28T13:15:12;33.50;50.40
12481;DHT22;6305;48.398;11.762;2023-07-28T13:17:39;33.50;50.50
12481;DHT22;6305;48.398;11.762;2023-07-28T13:20:07;33.70;50.00
12481;DHT22;6305;48.398;11.762;2023-07-28T13:22:35;34.40;50.00
12481;DHT22;6305;48.398;11.762;2023-07-28T13:25:03;35.30;48.50
12481;DHT22;6305;48.398;11.762;2023-07-28T13:27:30;35.50;47.50
12481;DHT22;6305;48.398;11.762;2023-07-28T13:29:57;35.00;47.20
12481;DHT22;6305;48.398;11.762;2023-07-28T13:32:26;34.40;48.00
12481;DHT22;6305;48.398;11.762;2023-07-28T13:34:53;33.60;48.80
12481;DHT22;6305;48.398;11.762;2023-07-28T13:37:20;32.70;50.80
12481;DHT22;6305;48.398;11.762;2023-07-28T13:39:47;31.90;53.20
12481;DHT22;6305;48.398;11.762;2023-07-28T13:42:14;30.90;55.60
12481;DHT22;6305;48.398;11.762;2023-07-28T13:44:42;29.90;58.40
12481;DHT22;6305;48.398;11.762;2023-07-28T13:47:09;29.10;62.20
12481;DHT22;6305;48.398;11.762;2023-07-28T13:49:37;28.50;65.40
12481;DHT22;6305;48.398;11.762;2023-07-28T13:52:05;28.30;68.40
12481;DHT22;6305;48.398;11.762;2023-07-28T13:54:32;28.30;70.90
12481;DHT22;6305;48.398;11.762;2023-07-28T13:56:59;28.70;73.00
12481;DHT22;6305;48.398;11.762;2023-07-28T13:59:26;29.10;70.70
12481;DHT22;6305;48.398;11.762;2023-07-28T14:01:53;29.40;71.00
12481;DHT22;6305;48.398;11.762;2023-07-28T14:04:21;29.70;69.70
12481;DHT22;6305;48.398;11.762;2023-07-28T14:06:50;30.10;68.10
12481;DHT22;6305;48.398;11.762;2023-07-28T14:09:17;30.20;65.90
12481;DHT22;6305;48.398;11.762;2023-07-28T14:11:44;30.00;63.40
12481;DHT22;6305;48.398;11.762;2023-07-28T14:14:11;29.80;64.50
12481;DHT22;6305;48.398;11.762;2023-07-28T14:16:38;29.60;63.60
12481;DHT22;6305;48.398;11.762;2023-07-28T14:19:05;29.40;66.10
12481;DHT22;6305;48.398;11.762;2023-07-28T14:21:32;29.30;67.60
12481;DHT22;6305;48.398;11.762;2023-07-28T14:24:00;29.10;68.80
12481;DHT22;6305;48.398;11.762;2023-07-28T14:26:27;28.80;71.70
12481;DHT22;6305;48.398;11.762;2023-07-28T14:28:55;28.30;73.00
12481;DHT22;6305;48.398;11.762;2023-07-28T14:31:22;27.80;76.00
12481;DHT22;6305;48.398;11.762;2023-07-28T14:33:49;27.50;79.20
12481;DHT22;6305;48.398;11.762;2023-07-28T14:36:16;27.20;83.50
12481;DHT22;6305;48.398;11.762;2023-07-28T14:38:43;26.70;90.70
12481;DHT22;6305;48.398;11.762;2023-07-28T14:41:11;26.00;97.20
12481;DHT22;6305;48.398;11.762;2023-07-28T14:43:38;25.30;99.90
12481;DHT22;6305;48.398;11.762;2023-07-28T14:46:05;24.50;99.90
12481;DHT22;6305;48.398;11.762;2023-07-28T14:48:33;23.40;99.90
12481;DHT22;6305;48.398;11.762;2023-07-28T14:51:00;22.10;99.90
12481;DHT22;6305;48.398;11.762;2023-07-28T14:53:32;21.10;99.90
12481;DHT22;6305;48.398;11.762;2023-07-28T14:56:01;20.30;99.90
12481;DHT22;6305;48.398;11.762;2023-07-28T14:58:30;19.90;99.90
12481;DHT22;6305;48.398;11.762;2023-07-28T15:00:57;19.60;99.90
12481;DHT22;6305;48.398;11.762;2023-07-28T15:03:27;19.30;99.90
12481;DHT22;6305;48.398;11.762;2023-07-28T15:05:54;19.20;99.90
12481;DHT22;6305;48.398;11.762;2023-07-28T15:08:21;19.30;99.90
12481;DHT22;6305;48.398;11.762;2023-07-28T15:10:48;19.40;99.90
12481;DHT22;6305;48.398;11.762;2023-07-28T15:13:15;19.40;99.90
12481;DHT22;6305;48.398;11.762;2023-07-28T15:15:44;19.60;99.90
12481;DHT22;6305;48.398;11.762;2023-07-28T15:18:11;19.90;99.90
12481;DHT22;6305;48.398;11.762;2023-07-28T15:20:41;20.10;99.90
12481;DHT22;6305;48.398;11.762;2023-07-28T15:23:08;20.20;99.90
12481;DHT22;6305;48.398;11.762;2023-07-28T15:25:36;20.40;99.90
12481;DHT22;6305;48.398;11.762;2023-07-28T15:28:09;20.50;99.90
12481;DHT22;6305;48.398;11.762;2023-07-28T15:30:37;20.50;99.90
12481;DHT22;6305;48.398;11.762;2023-07-28T15:33:05;20.50;99.90
12481;DHT22;6305;48.398;11.762;2023-07-28T15:35:33;20.50;99.90
12481;DHT22;6305;48.398;11.762;2023-07-28T15:38:01;20.50;99.90
12481;DHT22;6305;48.398;11.762;2023-07-28T15:40:29;20.50;99.90